Summitville, TN (37382)

12:36 AM CST on December 29, 2014 (GMT -0600)
New Union | Change Station
CLOSE
Current Station
Personal Weather Station
Location: Manchester, TN
Elevation: 1102 ft
Nearby Weather Stations

Elev 1102 ft 35.53 °N, 86.08 °W | Updated 6 minutes ago

Rain
Rain
40.6 °F
Feels Like 41 °F
N
1.6
Wind Variable Wind from NE

Today
High -- | Low -- °F
--% Chance of Precip.
Yesterday
High -- | Low -- °F
Precip. -- in
6:52 AM 4:39 PM
First Quarter, 56% visible
Pressure 30.12 in
Visibility 10.0 miles
Clouds Mostly Cloudy 500 ft
Mostly Cloudy 1300 ft
Overcast 1900 ft
Windchill 41 °F
Dew Point 40 °F
Humidity 99%
Rainfall 0.00 in
Snow Depth Not available.
UV 0 out of 12
Pollen .10 out of 12
Air Quality Not available.
Flu Activity Not available.
METAR KTHA 290615Z AUTO 00000KT 10SM BKN005 BKN013 OVC019 04/04 A3012 RMK

More Conditions Fewer Conditions

Pressure 30.12 in
Visibility 10.0 miles
Clouds Mostly Cloudy 500 ft
Mostly Cloudy 1300 ft
Overcast 1900 ft
Windchill 41 °F
Dew Point 40 °F
Humidity 99%
Rainfall 0.00 in
Snow Depth Not available.
UV 0 out of 12
Pollen .10 out of 12
Air Quality Not available.
Flu Activity Not available.
METAR KTHA 290615Z AUTO 00000KT 10SM BKN005 BKN013 OVC019 04/04 A3012 RMK

More Conditions Fewer Conditions

10-Day Weather Forecast

Almanac

Astronomy

Dec. 29, 2014 Rise Set
Actual Time
Civil Twilight
Nautical Twilight
Astronomical Twilight
Moon
Length of Visible Light
Length of Day
Tomorrow will be .
, % of the Moon is Illuminated

Today's Extremes

State Highs State Lows

Community

WunderPhotos

Upload Photos

1,781,546 photos uploaded!

WunderBlogs® & News

Nearby

Air Quality

  Air Quality AQ Index Pollutant
Not available.

Snow Depth

Station Depth Elevation

Earthquake Activity

City Distance Mag. Time & Date
Minimum magnitude displayed is 2.5.

Coastal Water Temperatures

Place Temperature

Nearby Weather Stations